createdAt,value
2016-02-24T00:00:19.095Z,0
2016-02-24T00:01:19.083Z,0
2016-02-24T00:02:19.085Z,0
2016-02-24T00:03:19.041Z,0
2016-02-24T00:04:19.028Z,0
2016-02-24T00:05:19.015Z,0
2016-02-24T00:06:18.955Z,0
2016-02-24T00:07:18.974Z,0
2016-02-24T00:08:18.914Z,0
2016-02-24T00:09:18.900Z,0
2016-02-24T00:10:18.872Z,0
2016-02-24T00:11:18.984Z,0
2016-02-24T00:12:18.830Z,0
2016-02-24T00:13:18.785Z,0
2016-02-24T00:14:18.774Z,0
2016-02-24T00:15:18.729Z,0
2016-02-24T00:16:18.731Z,0
2016-02-24T00:17:18.734Z,0
2016-02-24T00:18:18.690Z,0
2016-02-24T00:19:18.645Z,0
2016-02-24T00:20:18.618Z,0
2016-02-24T00:21:18.620Z,0
2016-02-24T00:22:18.576Z,0
2016-02-24T00:23:18.562Z,0
2016-02-24T00:24:18.551Z,0
2016-02-24T00:25:18.506Z,0
2016-02-24T00:26:18.493Z,0
2016-02-24T00:27:18.653Z,0
2016-02-24T00:28:18.436Z,0
2016-02-24T00:29:18.408Z,0
2016-02-24T00:30:18.379Z,0
2016-02-24T00:31:18.366Z,0
2016-02-24T00:32:18.337Z,0
2016-02-24T00:33:18.340Z,0
2016-02-24T00:34:18.296Z,0
2016-02-24T00:35:18.282Z,0
2016-02-24T00:36:18.244Z,0
2016-02-24T00:37:18.230Z,0
2016-02-24T00:38:18.202Z,0
2016-02-24T00:39:18.188Z,0
2016-02-24T00:40:18.145Z,0
2016-02-24T00:41:18.132Z,0
2016-02-24T00:42:18.103Z,0
2016-02-24T00:43:18.090Z,0
2016-02-24T00:44:18.046Z,0
2016-02-24T00:45:18.034Z,0
2016-02-24T00:46:18.021Z,0
2016-02-24T00:47:17.976Z,0
2016-02-24T00:48:17.948Z,0
2016-02-24T00:49:17.935Z,0
2016-02-24T00:50:17.922Z,0
2016-02-24T00:51:17.893Z,0
2016-02-24T00:52:17.848Z,0
2016-02-24T00:53:17.868Z,0
2016-02-24T00:54:17.823Z,0
2016-02-24T00:55:17.779Z,0
2016-02-24T00:56:17.766Z,0
2016-02-24T00:57:17.753Z,0
2016-02-24T00:58:17.708Z,0
2016-02-24T00:59:17.681Z,0
2016-02-24T01:00:17.667Z,0
2016-02-24T01:01:17.669Z,0
2016-02-24T01:02:17.611Z,0
2016-02-24T01:03:17.582Z,0
2016-02-24T01:04:17.585Z,0
2016-02-24T01:05:17.588Z,0
2016-02-24T01:06:17.533Z,0
2016-02-24T01:07:17.519Z,0
2016-02-24T01:08:17.741Z,0
2016-02-24T01:09:17.462Z,0
2016-02-24T01:10:17.449Z,0
2016-02-24T01:11:17.405Z,0
2016-02-24T01:12:17.392Z,0
2016-02-24T01:13:17.488Z,0
2016-02-24T01:14:17.334Z,0
2016-02-24T01:15:17.291Z,0
2016-02-24T01:16:17.293Z,0
2016-02-24T01:17:17.248Z,0
2016-02-24T01:18:17.220Z,0
2016-02-24T01:19:17.208Z,0
2016-02-24T01:20:17.211Z,0
2016-02-24T01:21:17.166Z,0
2016-02-24T01:22:17.153Z,0
2016-02-24T01:23:17.140Z,0
2016-02-24T01:24:17.378Z,0
2016-02-24T01:25:17.083Z,0
2016-02-24T01:26:17.055Z,0
2016-02-24T01:27:16.900Z,0
2016-02-24T01:28:16.983Z,0
2016-02-24T01:29:16.953Z,0
2016-02-24T01:30:16.941Z,0
2016-02-24T01:31:16.927Z,0
2016-02-24T01:32:16.914Z,0
2016-02-24T01:33:16.886Z,0
2016-02-24T01:34:16.842Z,0
2016-02-24T01:35:16.844Z,0
2016-02-24T01:36:16.816Z,0
2016-02-24T01:37:16.818Z,0
2016-02-24T01:38:16.588Z,0
2016-02-24T01:39:16.777Z,0
2016-02-24T01:40:16.702Z,0
2016-02-24T01:41:16.688Z,0
2016-02-24T01:42:16.660Z,0
2016-02-24T01:43:16.662Z,0
2016-02-24T01:44:16.635Z,0
2016-02-24T01:45:16.574Z,0
2016-02-24T01:46:16.561Z,0
2016-02-24T01:47:16.533Z,0
2016-02-24T01:48:16.504Z,0
2016-02-24T01:49:16.320Z,0
2016-02-24T01:50:16.447Z,0
2016-02-24T01:51:16.450Z,0
2016-02-24T01:52:16.406Z,0
2016-02-24T01:53:16.581Z,0
2016-02-24T01:54:16.365Z,0
2016-02-24T01:55:16.336Z,0
2016-02-24T01:56:16.322Z,0
2016-02-24T01:57:16.295Z,0
2016-02-24T01:58:16.266Z,0
2016-02-24T01:59:16.222Z,0
2016-02-24T02:00:16.256Z,0
2016-02-24T02:01:16.227Z,0
2016-02-24T02:02:16.167Z,0
2016-02-24T02:03:16.138Z,0
2016-02-24T02:04:16.110Z,0
2016-02-24T02:05:16.096Z,0
2016-02-24T02:06:16.068Z,0
2016-02-24T02:07:16.040Z,0
2016-02-24T02:08:16.011Z,0
2016-02-24T02:09:15.999Z,0
2016-02-24T02:10:16.204Z,0
2016-02-24T02:11:15.957Z,0
2016-02-24T02:12:15.929Z,0
2016-02-24T02:13:15.916Z,0
2016-02-24T02:14:15.152Z,0
2016-02-24T02:15:16.014Z,0
2016-02-24T02:16:15.815Z,0
2016-02-24T02:17:15.785Z,0
2016-02-24T02:18:16.210Z,0
2016-02-24T02:19:15.807Z,0
2016-02-24T02:20:15.731Z,0
2016-02-24T02:21:15.718Z,0
2016-02-24T02:22:15.674Z,0
2016-02-24T02:23:15.676Z,0
2016-02-24T02:24:15.633Z,0
2016-02-24T02:25:15.619Z,0
2016-02-24T02:26:15.576Z,0
2016-02-24T02:27:15.562Z,0
2016-02-24T02:28:15.534Z,0
2016-02-24T02:29:15.506Z,0
2016-02-24T02:30:15.509Z,0
2016-02-24T02:31:15.464Z,0
2016-02-24T02:32:15.420Z,0
2016-02-24T02:33:15.408Z,0
2016-02-24T02:34:15.519Z,0
2016-02-24T02:35:15.366Z,0
2016-02-24T02:36:15.352Z,0
2016-02-24T02:37:15.339Z,0
2016-02-24T02:38:15.295Z,0
2016-02-24T02:39:15.266Z,0
2016-02-24T02:40:15.222Z,0
2016-02-24T02:41:15.210Z,0
2016-02-24T02:42:15.196Z,0
2016-02-24T02:43:15.168Z,0
2016-02-24T02:44:15.155Z,0
2016-02-24T02:45:15.157Z,0
2016-02-24T02:46:15.113Z,0
2016-02-24T02:47:15.054Z,0
2016-02-24T02:48:15.026Z,0
2016-02-24T02:49:15.012Z,0
2016-02-24T02:50:14.999Z,0
2016-02-24T02:51:15.142Z,0
2016-02-24T02:52:14.787Z,0
2016-02-24T02:53:14.929Z,0
2016-02-24T02:54:14.900Z,0
2016-02-24T02:55:14.857Z,0
2016-02-24T02:56:14.844Z,0
2016-02-24T02:57:14.831Z,0
2016-02-24T02:58:14.803Z,0
2016-02-24T02:59:14.789Z,0
2016-02-24T03:00:14.666Z,0
2016-02-24T03:01:14.919Z,0
2016-02-24T03:02:14.703Z,0
2016-02-24T03:03:14.675Z,0
2016-02-24T03:04:14.661Z,0
2016-02-24T03:05:14.618Z,0
2016-02-24T03:06:14.605Z,0
2016-02-24T03:07:14.560Z,0
2016-02-24T03:08:14.580Z,0
2016-02-24T03:09:14.519Z,0
2016-02-24T03:10:14.522Z,0
2016-02-24T03:11:14.478Z,0
2016-02-24T03:12:14.715Z,0
2016-02-24T03:13:14.280Z,0
2016-02-24T03:14:14.408Z,0
2016-02-24T03:15:14.379Z,0
2016-02-24T03:16:14.352Z,0
2016-02-24T03:17:14.433Z,0
2016-02-24T03:18:14.358Z,0
2016-02-24T03:19:14.297Z,0
2016-02-24T03:20:14.284Z,0
2016-02-24T03:21:14.241Z,0
2016-02-24T03:22:14.196Z,0
2016-02-24T03:23:14.199Z,0
2016-02-24T03:24:14.185Z,0
2016-02-24T03:25:14.126Z,0
2016-02-24T03:26:14.159Z,0
2016-02-24T03:27:14.116Z,0
2016-02-24T03:28:14.056Z,0
2016-02-24T03:29:14.074Z,0
2016-02-24T03:30:14.014Z,0
2016-02-24T03:31:13.985Z,0
2016-02-24T03:32:13.988Z,0
2016-02-24T03:33:13.975Z,0
2016-02-24T03:34:13.993Z,0
2016-02-24T03:35:13.887Z,0
2016-02-24T03:36:13.889Z,0
2016-02-24T03:37:13.861Z,0
2016-02-24T03:38:13.817Z,0
2016-02-24T03:39:13.804Z,0
2016-02-24T03:40:13.773Z,0
2016-02-24T03:41:13.733Z,0
2016-02-24T03:42:13.676Z,0
2016-02-24T03:43:13.666Z,0
2016-02-24T03:44:13.610Z,0
2016-02-24T03:45:13.585Z,0
2016-02-24T03:46:13.539Z,0
2016-02-24T03:47:13.537Z,0
2016-02-24T03:48:13.550Z,0
2016-02-24T03:49:13.471Z,0
2016-02-24T03:50:13.469Z,0
2016-02-24T03:51:13.423Z,0
2016-02-24T03:52:13.394Z,0
2016-02-24T03:53:13.394Z,0
2016-02-24T03:54:13.333Z,0
2016-02-24T03:55:13.288Z,0
2016-02-24T03:56:13.305Z,0
2016-02-24T03:57:13.261Z,0
2016-02-24T03:58:13.481Z,0
2016-02-24T03:59:13.217Z,0
2016-02-24T04:00:13.204Z,0
2016-02-24T04:01:13.160Z,0
2016-02-24T04:02:13.115Z,0
2016-02-24T04:03:13.212Z,0
2016-02-24T04:04:13.089Z,0
2016-02-24T04:05:13.066Z,0
2016-02-24T04:06:13.037Z,0
2016-02-24T04:07:13.009Z,0
2016-02-24T04:08:13.028Z,0
2016-02-24T04:09:12.967Z,0
2016-02-24T04:10:13.001Z,0
2016-02-24T04:11:12.911Z,0
2016-02-24T04:12:12.928Z,0
2016-02-24T04:13:12.869Z,0
2016-02-24T04:14:13.090Z,0
2016-02-24T04:15:12.858Z,0
2016-02-24T04:16:12.783Z,0
2016-02-24T04:17:12.786Z,0
2016-02-24T04:18:12.772Z,0
2016-02-24T04:19:12.713Z,0
2016-02-24T04:20:12.746Z,0
2016-02-24T04:21:12.672Z,0
2016-02-24T04:22:12.690Z,0
2016-02-24T04:23:12.630Z,0
2016-02-24T04:24:12.617Z,0
2016-02-24T04:25:12.573Z,0
2016-02-24T04:26:12.544Z,0
2016-02-24T04:27:12.516Z,0
2016-02-24T04:28:12.503Z,0
2016-02-24T04:29:12.474Z,0
2016-02-24T04:30:12.461Z,0
2016-02-24T04:31:12.261Z,0
2016-02-24T04:32:12.420Z,0
2016-02-24T04:33:12.407Z,0
2016-02-24T04:34:12.363Z,0
2016-02-24T04:35:12.334Z,0
2016-02-24T04:36:12.133Z,0
2016-02-24T04:37:12.262Z,0
2016-02-24T04:38:12.279Z,0
2016-02-24T04:39:12.220Z,0
2016-02-24T04:40:12.206Z,0
2016-02-24T04:41:12.178Z,0
2016-02-24T04:42:12.150Z,0
2016-02-24T04:43:12.184Z,0
2016-02-24T04:44:12.109Z,0
2016-02-24T04:45:12.095Z,0
2016-02-24T04:46:12.050Z,0
2016-02-24T04:47:12.039Z,0
2016-02-24T04:48:12.025Z,0
2016-02-24T04:49:11.997Z,0
2016-02-24T04:50:11.968Z,0
2016-02-24T04:51:11.955Z,0
2016-02-24T04:52:11.927Z,0
2016-02-24T04:53:11.898Z,0
2016-02-24T04:54:11.843Z,0
2016-02-24T04:55:11.829Z,0
2016-02-24T04:56:11.831Z,0
2016-02-24T04:57:11.788Z,0
2016-02-24T04:58:11.759Z,0
2016-02-24T04:59:11.730Z,0
2016-02-24T05:00:11.936Z,0
2016-02-24T05:01:11.674Z,0
2016-02-24T05:02:11.677Z,0
2016-02-24T05:03:11.632Z,0
2016-02-24T05:04:11.603Z,0
2016-02-24T05:05:11.685Z,0
2016-02-24T05:06:11.562Z,0
2016-02-24T05:07:11.533Z,0
2016-02-24T05:08:11.521Z,0
2016-02-24T05:09:11.554Z,0
2016-02-24T05:10:11.479Z,0
2016-02-24T05:11:11.435Z,0
2016-02-24T05:12:11.438Z,0
2016-02-24T05:13:11.377Z,0
2016-02-24T05:14:11.380Z,0
2016-02-24T05:15:11.337Z,0
2016-02-24T05:16:11.340Z,0
2016-02-24T05:17:11.279Z,0
2016-02-24T05:18:11.282Z,0
2016-02-24T05:19:11.268Z,0
2016-02-24T05:20:11.225Z,0
2016-02-24T05:21:11.195Z,0
2016-02-24T05:22:11.168Z,0
2016-02-24T05:23:11.154Z,0
2016-02-24T05:24:11.126Z,0
2016-02-24T05:25:11.082Z,0
2016-02-24T05:26:11.069Z,0
2016-02-24T05:27:11.056Z,0
2016-02-24T05:28:11.012Z,0
2016-02-24T05:29:11.014Z,0
2016-02-24T05:30:11.002Z,0
2016-02-24T05:31:10.941Z,0
2016-02-24T05:32:10.913Z,0
2016-02-24T05:33:10.916Z,0
2016-02-24T05:34:10.871Z,0
2016-02-24T05:35:10.844Z,0
2016-02-24T05:36:10.830Z,0
2016-02-24T05:37:10.816Z,0
2016-02-24T05:38:10.758Z,0
2016-02-24T05:39:10.744Z,0
2016-02-24T05:40:10.732Z,0
2016-02-24T05:41:10.702Z,0
2016-02-24T05:42:10.674Z,0
2016-02-24T05:43:10.662Z,0
2016-02-24T05:44:10.695Z,0
2016-02-24T05:45:10.621Z,0
2016-02-24T05:46:10.576Z,0
2016-02-24T05:47:10.593Z,0
2016-02-24T05:48:10.534Z,0
2016-02-24T05:49:10.506Z,0
2016-02-24T05:50:10.477Z,0
2016-02-24T05:51:10.448Z,0
2016-02-24T05:52:10.420Z,0
2016-02-24T05:53:10.642Z,0
2016-02-24T05:54:10.363Z,0
2016-02-24T05:55:10.366Z,0
2016-02-24T05:56:10.337Z,0
2016-02-24T05:57:10.403Z,0
2016-02-24T05:58:10.280Z,0
2016-02-24T05:59:10.283Z,0
2016-02-24T06:00:10.222Z,0
2016-02-24T06:01:10.210Z,0
2016-02-24T06:02:10.321Z,0
2016-02-24T06:03:10.184Z,0
2016-02-24T06:04:10.139Z,0
2016-02-24T06:05:10.142Z,0
2016-02-24T06:06:10.083Z,0
2016-02-24T06:07:10.069Z,0
2016-02-24T06:08:10.058Z,4
2016-02-24T06:09:10.014Z,0
2016-02-24T06:10:10.000Z,0
2016-02-24T06:11:09.987Z,4
2016-02-24T06:12:09.928Z,4
2016-02-24T06:13:09.931Z,8
2016-02-24T06:14:09.886Z,4
2016-02-24T06:15:09.858Z,4
2016-02-24T06:16:09.876Z,8
2016-02-24T06:17:09.800Z,8
2016-02-24T06:18:09.803Z,12
2016-02-24T06:19:09.806Z,12
2016-02-24T06:20:09.747Z,16
2016-02-24T06:21:09.733Z,16
2016-02-24T06:22:09.689Z,20
2016-02-24T06:23:09.692Z,24
2016-02-24T06:24:09.632Z,24
2016-02-24T06:25:09.635Z,28
2016-02-24T06:26:09.621Z,32
2016-02-24T06:27:09.562Z,32
2016-02-24T06:28:09.548Z,36
2016-02-24T06:29:09.535Z,40
2016-02-24T06:30:09.492Z,48
2016-02-24T06:31:09.463Z,48
2016-02-24T06:32:09.451Z,52
2016-02-24T06:33:09.421Z,56
2016-02-24T06:34:09.393Z,56
2016-02-24T06:35:09.380Z,60
2016-02-24T06:36:09.337Z,68
2016-02-24T06:37:09.636Z,80
2016-02-24T06:38:09.279Z,84
2016-02-24T06:39:09.266Z,92
2016-02-24T06:40:09.269Z,92
2016-02-24T06:41:09.225Z,104
2016-02-24T06:42:09.195Z,108
2016-02-24T06:43:09.168Z,116
2016-02-24T06:44:09.044Z,124
2016-02-24T06:45:09.181Z,132
2016-02-24T06:46:09.075Z,136
2016-02-24T06:47:10.773Z,140
2016-02-24T06:48:09.157Z,148
2016-02-24T06:49:09.019Z,156
2016-02-24T06:50:09.007Z,164
2016-02-24T06:51:08.947Z,172
2016-02-24T06:52:08.933Z,176
2016-02-24T06:53:08.936Z,180
2016-02-24T06:54:08.908Z,192
2016-02-24T06:55:08.864Z,196
2016-02-24T06:56:08.851Z,208
2016-02-24T06:57:08.806Z,216
2016-02-24T06:58:08.794Z,220
2016-02-24T06:59:09.046Z,228
2016-02-24T07:00:08.737Z,256
2016-02-24T07:01:08.724Z,276
2016-02-24T07:02:08.696Z,272
2016-02-24T07:03:08.667Z,268
2016-02-24T07:04:08.747Z,264
2016-02-24T07:05:08.610Z,252
2016-02-24T07:06:08.487Z,252
2016-02-24T07:07:08.552Z,252
2016-02-24T07:08:08.540Z,256
2016-02-24T07:09:08.516Z,268
2016-02-24T07:10:08.486Z,276
2016-02-24T07:11:08.475Z,296
2016-02-24T07:12:08.461Z,296
2016-02-24T07:13:08.433Z,312
2016-02-24T07:14:08.388Z,348
2016-02-24T07:15:08.375Z,352
2016-02-24T07:16:08.347Z,372
2016-02-24T07:17:08.318Z,436
2016-02-24T07:18:08.291Z,508
2016-02-24T07:19:08.277Z,496
2016-02-24T07:20:08.263Z,524
2016-02-24T07:21:08.219Z,400
2016-02-24T07:22:08.207Z,424
2016-02-24T07:23:08.163Z,440
2016-02-24T07:24:08.149Z,428
2016-02-24T07:25:08.137Z,416
2016-02-24T07:26:08.108Z,448
2016-02-24T07:27:08.079Z,472
2016-02-24T07:28:08.099Z,500
2016-02-24T07:29:08.023Z,616
2016-02-24T07:30:07.994Z,668
2016-02-24T07:31:07.981Z,636
2016-02-24T07:32:07.937Z,620
2016-02-24T07:33:07.924Z,636
2016-02-24T07:34:07.911Z,656
2016-02-24T07:35:07.882Z,624
2016-02-24T07:36:07.853Z,564
2016-02-24T07:37:07.841Z,544
2016-02-24T07:38:07.797Z,536
2016-02-24T07:39:07.783Z,596
2016-02-24T07:40:07.739Z,584
2016-02-24T07:41:07.742Z,524
2016-02-24T07:42:07.697Z,444
2016-02-24T07:43:07.685Z,452
2016-02-24T07:44:07.672Z,460
2016-02-24T07:45:07.894Z,476
2016-02-24T07:46:07.599Z,492
2016-02-24T07:47:07.571Z,492
2016-02-24T07:48:07.558Z,548
2016-02-24T07:49:07.530Z,576
2016-02-24T07:50:07.594Z,536
2016-02-24T07:51:07.472Z,508
2016-02-24T07:52:07.460Z,500
2016-02-24T07:53:07.431Z,476
2016-02-24T07:54:07.402Z,472
2016-02-24T07:55:07.374Z,488
2016-02-24T07:56:07.377Z,528
2016-02-24T07:57:07.176Z,556
2016-02-24T07:58:07.304Z,560
2016-02-24T07:59:07.307Z,560
2016-02-24T08:00:07.262Z,576
2016-02-24T08:01:07.546Z,580
2016-02-24T08:02:07.204Z,592
2016-02-24T08:03:07.193Z,632
2016-02-24T08:04:07.304Z,652
2016-02-24T08:05:07.197Z,692
2016-02-24T08:06:07.107Z,744
2016-02-24T08:07:07.078Z,672
2016-02-24T08:08:07.300Z,624
2016-02-24T08:09:07.036Z,640
2016-02-24T08:10:06.992Z,624
2016-02-24T08:11:07.011Z,608
2016-02-24T08:12:06.951Z,588
2016-02-24T08:13:06.938Z,596
2016-02-24T08:14:06.909Z,728
2016-02-24T08:15:06.880Z,868
2016-02-24T08:16:06.867Z,804
2016-02-24T08:17:06.854Z,768
2016-02-24T08:18:06.841Z,912
2016-02-24T08:19:06.829Z,1128
2016-02-24T08:20:06.769Z,1232
2016-02-24T08:21:06.724Z,1032
2016-02-24T08:22:06.727Z,1096
2016-02-24T08:23:06.699Z,1080
2016-02-24T08:24:06.671Z,1196
2016-02-24T08:25:06.641Z,1428
2016-02-24T08:26:06.613Z,1248
2016-02-24T08:27:06.601Z,1216
2016-02-24T08:28:06.556Z,932
2016-02-24T08:29:06.544Z,912
2016-02-24T08:30:06.546Z,996
2016-02-24T08:31:06.532Z,1072
2016-02-24T08:32:06.457Z,1160
2016-02-24T08:33:06.445Z,1156
2016-02-24T08:34:06.448Z,1404
2016-02-24T08:35:06.403Z,1572
2016-02-24T08:36:06.390Z,1248
2016-02-24T08:37:06.346Z,1224
2016-02-24T08:38:06.317Z,1104
2016-02-24T08:39:06.304Z,1108
2016-02-24T08:40:06.261Z,1188
2016-02-24T08:41:06.263Z,1196
2016-02-24T08:42:06.234Z,1240
2016-02-24T08:43:06.190Z,1220
2016-02-24T08:44:06.161Z,1540
2016-02-24T08:45:06.164Z,1476
2016-02-24T08:46:06.136Z,1756
2016-02-24T08:47:06.405Z,1900
2016-02-24T08:48:06.078Z,2064
2016-02-24T08:49:05.894Z,1848
2016-02-24T08:50:06.022Z,1704
2016-02-24T08:51:06.008Z,1592
2016-02-24T08:52:06.136Z,1628
2016-02-24T08:53:05.952Z,1628
2016-02-24T08:54:05.938Z,1648
2016-02-24T08:55:05.894Z,1560
2016-02-24T08:56:05.882Z,1644
2016-02-24T08:57:05.885Z,1368
2016-02-24T08:58:05.855Z,1492
2016-02-24T08:59:05.827Z,1536
2016-02-24T09:00:05.783Z,1596
2016-02-24T09:01:05.754Z,1776
2016-02-24T09:02:05.741Z,1804
2016-02-24T09:03:05.744Z,1832
2016-02-24T09:04:04.981Z,1904
2016-02-24T09:05:05.671Z,1588
2016-02-24T09:06:05.627Z,1708
2016-02-24T09:07:05.614Z,1744
2016-02-24T09:08:05.617Z,1656
2016-02-24T09:09:05.557Z,1704
2016-02-24T09:10:05.545Z,1652
2016-02-24T09:11:05.515Z,1736
2016-02-24T09:12:05.706Z,1684
2016-02-24T09:13:05.475Z,1628
2016-02-24T09:14:05.445Z,1724
2016-02-24T09:15:05.432Z,1372
2016-02-24T09:16:05.389Z,1188
2016-02-24T09:17:05.375Z,1220
2016-02-24T09:18:05.363Z,1628
2016-02-24T09:19:05.334Z,1136
2016-02-24T09:20:05.305Z,1264
2016-02-24T09:21:05.261Z,1068
2016-02-24T09:22:05.249Z,1124
2016-02-24T09:23:05.251Z,1492
2016-02-24T09:24:05.207Z,2184
2016-02-24T09:25:05.177Z,2280
2016-02-24T09:26:05.166Z,1896
2016-02-24T09:27:05.137Z,1688
2016-02-24T09:28:05.108Z,1840
2016-02-24T09:29:05.080Z,2112
2016-02-24T09:30:05.066Z,1656
2016-02-24T09:31:05.038Z,1488
2016-02-24T09:32:05.010Z,1900
2016-02-24T09:33:04.981Z,1416
2016-02-24T09:34:04.967Z,1316
2016-02-24T09:35:04.939Z,1204
2016-02-24T09:36:04.911Z,1240
2016-02-24T09:37:04.882Z,1096
2016-02-24T09:38:05.026Z,1000
2016-02-24T09:39:04.840Z,1396
2016-02-24T09:40:04.843Z,1328
2016-02-24T09:41:04.799Z,1404
2016-02-24T09:42:04.771Z,1180
2016-02-24T09:43:04.742Z,1068
2016-02-24T09:44:04.744Z,1200
2016-02-24T09:45:04.701Z,1448
2016-02-24T09:46:04.688Z,1640
2016-02-24T09:47:04.691Z,1456
2016-02-24T09:48:04.631Z,1856
2016-02-24T09:49:04.852Z,1660
2016-02-24T09:50:04.574Z,1152
2016-02-24T09:51:04.545Z,1444
2016-02-24T09:52:04.532Z,1632
2016-02-24T09:53:04.503Z,2256
2016-02-24T09:54:04.631Z,1404
2016-02-24T09:55:04.463Z,1796
2016-02-24T09:56:04.433Z,2436
2016-02-24T09:57:04.436Z,2152
2016-02-24T09:58:04.377Z,1228
2016-02-24T09:59:04.363Z,1176
2016-02-24T10:00:04.351Z,1620
2016-02-24T10:01:04.321Z,1588
2016-02-24T10:02:04.290Z,1228
2016-02-24T10:03:04.262Z,1180
2016-02-24T10:04:04.248Z,1284
2016-02-24T10:05:04.299Z,1156
2016-02-24T10:06:04.192Z,1252
2016-02-24T10:07:04.179Z,1164
2016-02-24T10:08:04.151Z,1140
2016-02-24T10:09:04.153Z,1412
2016-02-24T10:10:04.093Z,1012
2016-02-24T10:11:04.049Z,1064
2016-02-24T10:12:04.051Z,1096
2016-02-24T10:13:04.039Z,1216
2016-02-24T10:14:03.995Z,1048
2016-02-24T10:15:03.982Z,1004
2016-02-24T10:16:03.797Z,1056
2016-02-24T10:17:03.940Z,1264
2016-02-24T10:18:03.897Z,1392
2016-02-24T10:19:03.899Z,1444
2016-02-24T10:20:03.839Z,1264
2016-02-24T10:21:03.826Z,1592
2016-02-24T10:22:03.797Z,1392
2016-02-24T10:23:03.816Z,1476
2016-02-24T10:24:03.756Z,1780
2016-02-24T10:25:03.743Z,1772
2016-02-24T10:26:03.714Z,1880
2016-02-24T10:27:03.530Z,2208
2016-02-24T10:28:03.516Z,2168
2016-02-24T10:29:03.644Z,2816
2016-02-24T10:30:03.616Z,3104
2016-02-24T10:31:03.587Z,2180
2016-02-24T10:32:03.559Z,1516
2016-02-24T10:33:03.530Z,1548
2016-02-24T10:34:03.517Z,1264
2016-02-24T10:35:03.505Z,1468
2016-02-24T10:36:03.460Z,2052
2016-02-24T10:37:03.448Z,2132
2016-02-24T10:38:03.418Z,1960
2016-02-24T10:39:03.406Z,1772
2016-02-24T10:40:03.549Z,1804
2016-02-24T10:41:03.348Z,2052
2016-02-24T10:42:03.304Z,3232
2016-02-24T10:43:03.339Z,2640
2016-02-24T10:44:03.278Z,2244
2016-02-24T10:45:03.282Z,1564
2016-02-24T10:46:03.253Z,1732
2016-02-24T10:47:03.192Z,1780
2016-02-24T10:48:03.180Z,1884
2016-02-24T10:49:03.167Z,1876
2016-02-24T10:50:03.153Z,1716
2016-02-24T10:51:03.110Z,1868
2016-02-24T10:52:03.113Z,1984
2016-02-24T10:53:03.069Z,2592
2016-02-24T10:54:03.056Z,2536
2016-02-24T10:55:03.042Z,2792
2016-02-24T10:56:02.998Z,3032
2016-02-24T10:57:02.970Z,3332
2016-02-24T10:58:02.957Z,3156
2016-02-24T10:59:02.927Z,2804
2016-02-24T11:00:02.916Z,3300
2016-02-24T11:01:02.887Z,3384
2016-02-24T11:02:02.858Z,3456
2016-02-24T11:03:02.830Z,2932
2016-02-24T11:04:02.816Z,2972
2016-02-24T11:05:02.788Z,2588
2016-02-24T11:06:02.760Z,2976
2016-02-24T11:07:02.949Z,2428
2016-02-24T11:08:02.702Z,2572
2016-02-24T11:09:02.704Z,2836
2016-02-24T11:10:02.692Z,3668
2016-02-24T11:11:02.632Z,3748
2016-02-24T11:12:02.620Z,3824
2016-02-24T11:13:02.607Z,4044
2016-02-24T11:14:02.579Z,3464
2016-02-24T11:15:02.565Z,3788
2016-02-24T11:16:02.584Z,3620
2016-02-24T11:17:02.509Z,3264
2016-02-24T11:18:02.479Z,2912
2016-02-24T11:19:02.481Z,2888
2016-02-24T11:20:02.423Z,2928
2016-02-24T11:21:02.425Z,3148
2016-02-24T11:22:02.239Z,3656
2016-02-24T11:23:02.212Z,4160
2016-02-24T11:24:02.339Z,4212
2016-02-24T11:25:02.327Z,4048
2016-02-24T11:26:02.282Z,3764
2016-02-24T11:27:02.269Z,3552
2016-02-24T11:28:02.256Z,3376
2016-02-24T11:29:02.478Z,3244
2016-02-24T11:30:02.199Z,3320
2016-02-24T11:31:02.201Z,3592
2016-02-24T11:32:02.142Z,3104
2016-02-24T11:33:02.113Z,3280
2016-02-24T11:34:02.100Z,3080
2016-02-24T11:35:02.072Z,2684
2016-02-24T11:36:02.043Z,2584
2016-02-24T11:37:02.109Z,3012
2016-02-24T11:38:02.002Z,3560
2016-02-24T11:39:01.989Z,3444
2016-02-24T11:40:01.945Z,3276
2016-02-24T11:41:01.963Z,3304
2016-02-24T11:42:02.028Z,3300
2016-02-24T11:43:01.875Z,3100
2016-02-24T11:44:01.846Z,2316
2016-02-24T11:45:01.848Z,2832
2016-02-24T11:46:01.820Z,2780
2016-02-24T11:47:01.807Z,2740
2016-02-24T11:48:01.763Z,2624
2016-02-24T11:49:01.751Z,2708
2016-02-24T11:50:01.753Z,2016
2016-02-24T11:51:01.708Z,2440
2016-02-24T11:52:01.680Z,3116
2016-02-24T11:53:01.667Z,2908
2016-02-24T11:54:01.639Z,2396
2016-02-24T11:55:01.610Z,2112
2016-02-24T11:56:01.581Z,1240
2016-02-24T11:57:01.787Z,1284
2016-02-24T11:58:01.556Z,1780
2016-02-24T11:59:01.527Z,2112
2016-02-24T12:00:01.498Z,2792
2016-02-24T12:01:01.313Z,1652
2016-02-24T12:02:01.379Z,1864
2016-02-24T12:03:01.647Z,1760
2016-02-24T12:04:01.416Z,1488
2016-02-24T12:05:01.373Z,1220
2016-02-24T12:06:01.360Z,992
2016-02-24T12:07:01.331Z,884
2016-02-24T12:08:01.287Z,892
2016-02-24T12:09:01.275Z,924
2016-02-24T12:10:01.262Z,1204
2016-02-24T12:11:01.217Z,1308
2016-02-24T12:12:01.205Z,1336
2016-02-24T12:13:01.208Z,1368
2016-02-24T12:14:00.413Z,1488
2016-02-24T12:15:01.166Z,1784
2016-02-24T12:16:01.122Z,1752
2016-02-24T12:17:01.093Z,1616
2016-02-24T12:18:01.064Z,2352
2016-02-24T12:19:01.067Z,2876
2016-02-24T12:20:01.133Z,3708
2016-02-24T12:21:01.072Z,4000
2016-02-24T12:22:01.185Z,3656
2016-02-24T12:23:00.969Z,4036
2016-02-24T12:24:00.924Z,4960
2016-02-24T12:25:00.911Z,5052
2016-02-24T12:26:00.899Z,4772
2016-02-24T12:27:00.854Z,4468
2016-02-24T12:28:00.919Z,4460
2016-02-24T12:29:00.813Z,4812
2016-02-24T12:30:00.784Z,5196
2016-02-24T12:31:00.771Z,5148
2016-02-24T12:32:00.759Z,4952
2016-02-24T12:33:00.714Z,5500
2016-02-24T12:34:00.701Z,5484
2016-02-24T12:35:00.703Z,4992
2016-02-24T12:36:00.659Z,4676
2016-02-24T12:37:00.615Z,5020
2016-02-24T12:38:00.617Z,5092
2016-02-24T12:39:00.573Z,4440
2016-02-24T12:40:00.562Z,4336
2016-02-24T12:41:00.548Z,2580
2016-02-24T12:42:00.503Z,3292
2016-02-24T12:43:00.507Z,2288
2016-02-24T12:44:00.587Z,2960
2016-02-24T12:45:00.481Z,4184
2016-02-24T12:46:00.422Z,4208
2016-02-24T12:47:00.390Z,3324
2016-02-24T12:48:00.368Z,3440
2016-02-24T12:49:00.344Z,3684
2016-02-24T12:50:00.289Z,3532
2016-02-24T12:51:00.298Z,3792
2016-02-24T12:52:00.228Z,4324
2016-02-24T12:53:00.212Z,5416
2016-02-24T12:54:00.211Z,3536
2016-02-24T12:55:00.146Z,4596
2016-02-24T12:56:00.131Z,4728
2016-02-24T12:57:00.114Z,5132
2016-02-24T12:58:00.099Z,5212
2016-02-24T12:59:00.038Z,5556
2016-02-24T13:00:00.041Z,5628
2016-02-24T13:01:00.011Z,5316
2016-02-24T13:02:00.059Z,4724
2016-02-24T13:03:00.030Z,4308
2016-02-24T13:03:59.923Z,4524
2016-02-24T13:05:00.114Z,4556
2016-02-24T13:05:59.882Z,4320
2016-02-24T13:06:59.899Z,4120
2016-02-24T13:07:59.855Z,4384
2016-02-24T13:08:59.889Z,4552
2016-02-24T13:09:59.797Z,4876
2016-02-24T13:10:59.752Z,5484
2016-02-24T13:11:59.739Z,6256
2016-02-24T13:12:59.726Z,6656
2016-02-24T13:13:59.713Z,6752
2016-02-24T13:14:59.701Z,6640
2016-02-24T13:15:59.501Z,6000
2016-02-24T13:16:59.613Z,5676
2016-02-24T13:17:59.631Z,5636
2016-02-24T13:18:59.587Z,5040
2016-02-24T13:19:59.604Z,4844
2016-02-24T13:20:59.545Z,5076
2016-02-24T13:21:59.548Z,4956
2016-02-24T13:22:59.503Z,4844
2016-02-24T13:23:59.475Z,5336
2016-02-24T13:24:59.727Z,5512
2016-02-24T13:25:59.449Z,4524
2016-02-24T13:26:59.451Z,4168
2016-02-24T13:27:59.407Z,4032
2016-02-24T13:28:59.364Z,5124
2016-02-24T13:29:59.444Z,4980
2016-02-24T13:30:59.337Z,4884
2016-02-24T13:31:59.325Z,4728
2016-02-24T13:32:59.280Z,5164
2016-02-24T13:33:59.299Z,5656
2016-02-24T13:34:59.083Z,5636
2016-02-24T13:35:59.538Z,5320
2016-02-24T13:36:59.197Z,5084
2016-02-24T13:37:59.184Z,4676
2016-02-24T13:38:59.156Z,4740
2016-02-24T13:39:59.127Z,4796
2016-02-24T13:40:59.254Z,4492
2016-02-24T13:41:59.102Z,4640
2016-02-24T13:42:59.073Z,4908
2016-02-24T13:43:59.044Z,5480
2016-02-24T13:44:59.046Z,5660
2016-02-24T13:45:59.003Z,5348
2016-02-24T13:46:59.037Z,5092
2016-02-24T13:47:58.961Z,4840
2016-02-24T13:48:58.948Z,4440
2016-02-24T13:49:58.967Z,4292
2016-02-24T13:50:58.937Z,4120
2016-02-24T13:51:58.879Z,3904
2016-02-24T13:52:58.850Z,3752
2016-02-24T13:53:58.868Z,3576
2016-02-24T13:54:58.824Z,3208
2016-02-24T13:55:58.780Z,2900
2016-02-24T13:56:58.782Z,2728
2016-02-24T13:57:58.753Z,2624
2016-02-24T13:58:58.725Z,2504
2016-02-24T13:59:58.712Z,2384
2016-02-24T14:00:58.574Z,2320